sensor_id;sensor_type;location;lat;lon;timestamp;pressure;altitude;pressure_sealevel;temperature
9985;BMP180;16737;50.932;6.780;2023-10-13T00:02:11;100077.00;;;22.20
9985;BMP180;16737;50.932;6.780;2023-10-13T00:04:39;100053.00;;;22.20
9985;BMP180;16737;50.932;6.780;2023-10-13T00:07:09;100068.00;;;22.20
9985;BMP180;16737;50.932;6.780;2023-10-13T00:09:37;100049.00;;;22.10
9985;BMP180;16737;50.932;6.780;2023-10-13T00:12:06;100064.00;;;22.20
9985;BMP180;16737;50.932;6.780;2023-10-13T00:14:35;100068.00;;;22.20
9985;BMP180;16737;50.932;6.780;2023-10-13T00:17:05;100066.00;;;22.20
9985;BMP180;16737;50.932;6.780;2023-10-13T00:19:37;100058.00;;;22.10
9985;BMP180;16737;50.932;6.780;2023-10-13T00:22:11;100054.00;;;22.20
9985;BMP180;16737;50.932;6.780;2023-10-13T00:24:40;100053.00;;;22.10
9985;BMP180;16737;50.932;6.780;2023-10-13T00:27:13;100035.00;;;22.10
9985;BMP180;16737;50.932;6.780;2023-10-13T00:29:56;100047.00;;;22.10
9985;BMP180;16737;50.932;6.780;2023-10-13T00:32:49;100035.00;;;22.10
9985;BMP180;16737;50.932;6.780;2023-10-13T00:35:22;100037.00;;;22.10
9985;BMP180;16737;50.932;6.780;2023-10-13T00:37:54;100036.00;;;22.10
9985;BMP180;16737;50.932;6.780;2023-10-13T00:40:23;100014.00;;;22.00
9985;BMP180;16737;50.932;6.780;2023-10-13T00:43:08;100024.00;;;22.00
9985;BMP180;16737;50.932;6.780;2023-10-13T00:45:54;100028.00;;;22.00
9985;BMP180;16737;50.932;6.780;2023-10-13T00:48:24;100027.00;;;22.00
9985;BMP180;16737;50.932;6.780;2023-10-13T00:50:57;100024.00;;;22.00
9985;BMP180;16737;50.932;6.780;2023-10-13T00:53:29;100022.00;;;22.00
9985;BMP180;16737;50.932;6.780;2023-10-13T00:55:59;100024.00;;;22.00
9985;BMP180;16737;50.932;6.780;2023-10-13T00:58:32;100012.00;;;22.00
9985;BMP180;16737;50.932;6.780;2023-10-13T01:01:01;99983.00;;;22.00
9985;BMP180;16737;50.932;6.780;2023-10-13T01:03:42;100007.00;;;22.00
9985;BMP180;16737;50.932;6.780;2023-10-13T01:06:11;100006.00;;;22.00
9985;BMP180;16737;50.932;6.780;2023-10-13T01:08:38;99995.00;;;22.00
9985;BMP180;16737;50.932;6.780;2023-10-13T01:11:05;99997.00;;;22.00
9985;BMP180;16737;50.932;6.780;2023-10-13T01:13:33;99985.00;;;22.00
9985;BMP180;16737;50.932;6.780;2023-10-13T01:16:02;99969.00;;;22.00
9985;BMP180;16737;50.932;6.780;2023-10-13T01:18:30;99971.00;;;22.00
9985;BMP180;16737;50.932;6.780;2023-10-13T01:20:56;99978.00;;;22.00
9985;BMP180;16737;50.932;6.780;2023-10-13T01:23:26;99946.00;;;21.90
9985;BMP180;16737;50.932;6.780;2023-10-13T01:25:55;99954.00;;;22.00
9985;BMP180;16737;50.932;6.780;2023-10-13T01:28:22;99977.00;;;22.00
9985;BMP180;16737;50.932;6.780;2023-10-13T01:30:49;99969.00;;;22.00
9985;BMP180;16737;50.932;6.780;2023-10-13T01:33:16;99969.00;;;22.00
9985;BMP180;16737;50.932;6.780;2023-10-13T01:35:43;99962.00;;;22.00
9985;BMP180;16737;50.932;6.780;2023-10-13T01:38:13;99948.00;;;22.00
9985;BMP180;16737;50.932;6.780;2023-10-13T01:40:42;99958.00;;;22.00
9985;BMP180;16737;50.932;6.780;2023-10-13T01:43:09;99960.00;;;21.90
9985;BMP180;16737;50.932;6.780;2023-10-13T01:45:37;99959.00;;;21.90
9985;BMP180;16737;50.932;6.780;2023-10-13T01:48:15;99958.00;;;21.90
9985;BMP180;16737;50.932;6.780;2023-10-13T01:50:45;99942.00;;;21.90
9985;BMP180;16737;50.932;6.780;2023-10-13T01:53:18;99943.00;;;21.90
9985;BMP180;16737;50.932;6.780;2023-10-13T01:55:47;99936.00;;;21.90
9985;BMP180;16737;50.932;6.780;2023-10-13T01:58:13;99929.00;;;21.90
9985;BMP180;16737;50.932;6.780;2023-10-13T02:00:42;99932.00;;;21.90
9985;BMP180;16737;50.932;6.780;2023-10-13T02:03:10;99914.00;;;21.90
9985;BMP180;16737;50.932;6.780;2023-10-13T02:05:41;99930.00;;;21.90
9985;BMP180;16737;50.932;6.780;2023-10-13T02:08:13;99934.00;;;21.90
9985;BMP180;16737;50.932;6.780;2023-10-13T02:10:49;99915.00;;;21.90
9985;BMP180;16737;50.932;6.780;2023-10-13T02:13:18;99929.00;;;21.90
9985;BMP180;16737;50.932;6.780;2023-10-13T02:15:45;99911.00;;;21.90
9985;BMP180;16737;50.932;6.780;2023-10-13T02:18:14;99911.00;;;21.90
9985;BMP180;16737;50.932;6.780;2023-10-13T02:20:47;99901.00;;;21.90
9985;BMP180;16737;50.932;6.780;2023-10-13T02:23:20;99911.00;;;21.90
9985;BMP180;16737;50.932;6.780;2023-10-13T02:25:49;99905.00;;;21.90
9985;BMP180;16737;50.932;6.780;2023-10-13T02:28:18;99894.00;;;21.90
9985;BMP180;16737;50.932;6.780;2023-10-13T02:30:54;99896.00;;;21.90
9985;BMP180;16737;50.932;6.780;2023-10-13T02:33:20;99900.00;;;21.90
9985;BMP180;16737;50.932;6.780;2023-10-13T02:35:48;99887.00;;;21.90
9985;BMP180;16737;50.932;6.780;2023-10-13T02:38:20;99882.00;;;21.90
9985;BMP180;16737;50.932;6.780;2023-10-13T02:40:58;99882.00;;;21.90
9985;BMP180;16737;50.932;6.780;2023-10-13T02:43:33;99878.00;;;21.90
9985;BMP180;16737;50.932;6.780;2023-10-13T02:46:00;99874.00;;;21.90
9985;BMP180;16737;50.932;6.780;2023-10-13T02:48:28;99863.00;;;21.90
9985;BMP180;16737;50.932;6.780;2023-10-13T02:51:06;99866.00;;;21.90
9985;BMP180;16737;50.932;6.780;2023-10-13T02:53:42;99856.00;;;21.90
9985;BMP180;16737;50.932;6.780;2023-10-13T02:56:14;99863.00;;;21.90
9985;BMP180;16737;50.932;6.780;2023-10-13T02:58:47;99858.00;;;21.90
9985;BMP180;16737;50.932;6.780;2023-10-13T03:01:20;99848.00;;;21.90
9985;BMP180;16737;50.932;6.780;2023-10-13T03:03:48;99851.00;;;21.90
9985;BMP180;16737;50.932;6.780;2023-10-13T03:06:18;99840.00;;;21.90
9985;BMP180;16737;50.932;6.780;2023-10-13T03:08:48;99835.00;;;22.00
9985;BMP180;16737;50.932;6.780;2023-10-13T03:11:16;99847.00;;;22.00
9985;BMP180;16737;50.932;6.780;2023-10-13T03:13:49;99832.00;;;22.00
9985;BMP180;16737;50.932;6.780;2023-10-13T03:16:18;99829.00;;;22.00
9985;BMP180;16737;50.932;6.780;2023-10-13T03:18:46;99791.00;;;22.00
9985;BMP180;16737;50.932;6.780;2023-10-13T03:21:21;99826.00;;;22.00
9985;BMP180;16737;50.932;6.780;2023-10-13T03:23:59;99826.00;;;22.00
9985;BMP180;16737;50.932;6.780;2023-10-13T03:26:33;99810.00;;;22.00
9985;BMP180;16737;50.932;6.780;2023-10-13T03:29:03;99806.00;;;22.10
9985;BMP180;16737;50.932;6.780;2023-10-13T03:31:38;99778.00;;;22.10
9985;BMP180;16737;50.932;6.780;2023-10-13T03:34:05;99788.00;;;22.10
9985;BMP180;16737;50.932;6.780;2023-10-13T03:36:36;99793.00;;;22.10
9985;BMP180;16737;50.932;6.780;2023-10-13T03:39:21;99777.00;;;22.10
9985;BMP180;16737;50.932;6.780;2023-10-13T03:41:57;99783.00;;;22.10
9985;BMP180;16737;50.932;6.780;2023-10-13T03:44:25;99773.00;;;22.10
9985;BMP180;16737;50.932;6.780;2023-10-13T03:46:56;99784.00;;;22.10
9985;BMP180;16737;50.932;6.780;2023-10-13T03:49:34;99768.00;;;22.10
9985;BMP180;16737;50.932;6.780;2023-10-13T03:52:04;99771.00;;;22.10
9985;BMP180;16737;50.932;6.780;2023-10-13T03:54:31;99768.00;;;22.10
9985;BMP180;16737;50.932;6.780;2023-10-13T03:57:02;99772.00;;;22.10
9985;BMP180;16737;50.932;6.780;2023-10-13T03:59:37;99763.00;;;22.10
9985;BMP180;16737;50.932;6.780;2023-10-13T04:02:05;99764.00;;;22.10
9985;BMP180;16737;50.932;6.780;2023-10-13T04:04:38;99759.00;;;22.20
9985;BMP180;16737;50.932;6.780;2023-10-13T04:07:09;99772.00;;;22.20
9985;BMP180;16737;50.932;6.780;2023-10-13T04:09:54;99768.00;;;22.20
9985;BMP180;16737;50.932;6.780;2023-10-13T04:12:58;99742.00;;;22.20
9985;BMP180;16737;50.932;6.780;2023-10-13T04:15:43;99755.00;;;22.20
9985;BMP180;16737;50.932;6.780;2023-10-13T04:18:28;99765.00;;;22.30
9985;BMP180;16737;50.932;6.780;2023-10-13T04:21:12;99755.00;;;22.30
9985;BMP180;16737;50.932;6.780;2023-10-13T04:24:06;99745.00;;;22.30
9985;BMP180;16737;50.932;6.780;2023-10-13T04:26:51;99731.00;;;22.40
9985;BMP180;16737;50.932;6.780;2023-10-13T04:29:37;99750.00;;;22.40
9985;BMP180;16737;50.932;6.780;2023-10-13T04:32:18;99750.00;;;22.40
9985;BMP180;16737;50.932;6.780;2023-10-13T04:34:55;99738.00;;;22.40
9985;BMP180;16737;50.932;6.780;2023-10-13T04:37:24;99735.00;;;22.40
9985;BMP180;16737;50.932;6.780;2023-10-13T04:39:55;99727.00;;;22.40
9985;BMP180;16737;50.932;6.780;2023-10-13T04:42:25;99724.00;;;22.40
9985;BMP180;16737;50.932;6.780;2023-10-13T04:45:17;99716.00;;;22.40
9985;BMP180;16737;50.932;6.780;2023-10-13T04:48:03;99715.00;;;22.40
9985;BMP180;16737;50.932;6.780;2023-10-13T04:50:46;99703.00;;;22.30
9985;BMP180;16737;50.932;6.780;2023-10-13T04:53:13;99713.00;;;22.30
9985;BMP180;16737;50.932;6.780;2023-10-13T04:55:56;99701.00;;;22.30
9985;BMP180;16737;50.932;6.780;2023-10-13T04:58:59;99690.00;;;22.30
9985;BMP180;16737;50.932;6.780;2023-10-13T05:01:44;99702.00;;;22.20
9985;BMP180;16737;50.932;6.780;2023-10-13T05:04:29;99704.00;;;22.20
9985;BMP180;16737;50.932;6.780;2023-10-13T05:07:25;99696.00;;;22.20
9985;BMP180;16737;50.932;6.780;2023-10-13T05:10:21;99708.00;;;22.20
9985;BMP180;16737;50.932;6.780;2023-10-13T05:13:05;99686.00;;;22.20
9985;BMP180;16737;50.932;6.780;2023-10-13T05:15:51;99697.00;;;22.20
9985;BMP180;16737;50.932;6.780;2023-10-13T05:18:37;99692.00;;;22.20
9985;BMP180;16737;50.932;6.780;2023-10-13T05:21:22;99700.00;;;22.30
9985;BMP180;16737;50.932;6.780;2023-10-13T05:24:07;99704.00;;;22.30
9985;BMP180;16737;50.932;6.780;2023-10-13T05:26:53;99697.00;;;22.30
9985;BMP180;16737;50.932;6.780;2023-10-13T05:29:39;99689.00;;;22.30
9985;BMP180;16737;50.932;6.780;2023-10-13T05:32:24;99694.00;;;22.30
9985;BMP180;16737;50.932;6.780;2023-10-13T05:35:10;99692.00;;;22.40
9985;BMP180;16737;50.932;6.780;2023-10-13T05:37:55;99698.00;;;22.40
9985;BMP180;16737;50.932;6.780;2023-10-13T05:40:51;99699.00;;;22.40
9985;BMP180;16737;50.932;6.780;2023-10-13T05:43:35;99701.00;;;22.40
9985;BMP180;16737;50.932;6.780;2023-10-13T05:46:20;99702.00;;;22.40
9985;BMP180;16737;50.932;6.780;2023-10-13T05:49:03;99686.00;;;22.50
9985;BMP180;16737;50.932;6.780;2023-10-13T05:51:48;99692.00;;;22.50
9985;BMP180;16737;50.932;6.780;2023-10-13T05:54:24;99697.00;;;22.50
9985;BMP180;16737;50.932;6.780;2023-10-13T05:57:08;99690.00;;;22.60
9985;BMP180;16737;50.932;6.780;2023-10-13T05:59:53;99688.00;;;22.60
9985;BMP180;16737;50.932;6.780;2023-10-13T06:02:37;99695.00;;;22.60
9985;BMP180;16737;50.932;6.780;2023-10-13T06:05:22;99692.00;;;22.70
9985;BMP180;16737;50.932;6.780;2023-10-13T06:08:08;99685.00;;;22.70
9985;BMP180;16737;50.932;6.780;2023-10-13T06:11:01;99683.00;;;22.80
9985;BMP180;16737;50.932;6.780;2023-10-13T06:13:42;99678.00;;;22.80
9985;BMP180;16737;50.932;6.780;2023-10-13T06:16:26;99693.00;;;22.80
9985;BMP180;16737;50.932;6.780;2023-10-13T06:19:11;99688.00;;;22.90
9985;BMP180;16737;50.932;6.780;2023-10-13T06:21:55;99684.00;;;22.90
9985;BMP180;16737;50.932;6.780;2023-10-13T06:24:42;99695.00;;;22.90
9985;BMP180;16737;50.932;6.780;2023-10-13T06:27:26;99683.00;;;23.00
9985;BMP180;16737;50.932;6.780;2023-10-13T06:30:11;99668.00;;;23.00
9985;BMP180;16737;50.932;6.780;2023-10-13T06:32:39;99671.00;;;23.00
9985;BMP180;16737;50.932;6.780;2023-10-13T06:35:07;99662.00;;;23.00
9985;BMP180;16737;50.932;6.780;2023-10-13T06:37:34;99668.00;;;23.00
9985;BMP180;16737;50.932;6.780;2023-10-13T06:40:12;99670.00;;;23.00
9985;BMP180;16737;50.932;6.780;2023-10-13T06:42:48;99670.00;;;23.00
9985;BMP180;16737;50.932;6.780;2023-10-13T06:45:15;99661.00;;;23.00
9985;BMP180;16737;50.932;6.780;2023-10-13T06:47:43;99663.00;;;23.00
9985;BMP180;16737;50.932;6.780;2023-10-13T06:50:11;99642.00;;;23.00
9985;BMP180;16737;50.932;6.780;2023-10-13T06:52:42;99634.00;;;23.00
9985;BMP180;16737;50.932;6.780;2023-10-13T06:55:11;99636.00;;;22.90
9985;BMP180;16737;50.932;6.780;2023-10-13T06:57:43;99632.00;;;22.90
9985;BMP180;16737;50.932;6.780;2023-10-13T07:00:11;99629.00;;;22.90
9985;BMP180;16737;50.932;6.780;2023-10-13T07:02:45;99638.00;;;22.90
9985;BMP180;16737;50.932;6.780;2023-10-13T07:05:13;99626.00;;;22.90
9985;BMP180;16737;50.932;6.780;2023-10-13T07:07:41;99629.00;;;23.00
9985;BMP180;16737;50.932;6.780;2023-10-13T07:10:12;99621.00;;;23.00
9985;BMP180;16737;50.932;6.780;2023-10-13T07:12:40;99629.00;;;23.00
9985;BMP180;16737;50.932;6.780;2023-10-13T07:15:09;99627.00;;;23.00
9985;BMP180;16737;50.932;6.780;2023-10-13T07:17:45;99626.00;;;23.00
9985;BMP180;16737;50.932;6.780;2023-10-13T07:20:12;99616.00;;;23.10
9985;BMP180;16737;50.932;6.780;2023-10-13T07:22:49;99628.00;;;23.10
9985;BMP180;16737;50.932;6.780;2023-10-13T07:25:24;99634.00;;;23.10
9985;BMP180;16737;50.932;6.780;2023-10-13T07:27:52;99627.00;;;23.10
9985;BMP180;16737;50.932;6.780;2023-10-13T07:30:22;99631.00;;;23.20
9985;BMP180;16737;50.932;6.780;2023-10-13T07:32:52;99625.00;;;23.20
9985;BMP180;16737;50.932;6.780;2023-10-13T07:35:21;99606.00;;;23.20
9985;BMP180;16737;50.932;6.780;2023-10-13T07:37:52;99628.00;;;23.30
9985;BMP180;16737;50.932;6.780;2023-10-13T07:40:21;99636.00;;;23.30
9985;BMP180;16737;50.932;6.780;2023-10-13T07:43:06;99632.00;;;23.40
9985;BMP180;16737;50.932;6.780;2023-10-13T07:45:36;99622.00;;;23.40
9985;BMP180;16737;50.932;6.780;2023-10-13T07:48:04;99636.00;;;23.40
9985;BMP180;16737;50.932;6.780;2023-10-13T07:50:38;99624.00;;;23.50
9985;BMP180;16737;50.932;6.780;2023-10-13T07:53:06;99624.00;;;23.50
9985;BMP180;16737;50.932;6.780;2023-10-13T07:55:46;99630.00;;;23.60
9985;BMP180;16737;50.932;6.780;2023-10-13T07:58:15;99627.00;;;23.60
9985;BMP180;16737;50.932;6.780;2023-10-13T08:00:42;99619.00;;;23.60
9985;BMP180;16737;50.932;6.780;2023-10-13T08:03:20;99619.00;;;23.70
9985;BMP180;16737;50.932;6.780;2023-10-13T08:06:09;99614.00;;;23.70
9985;BMP180;16737;50.932;6.780;2023-10-13T08:08:46;99615.00;;;23.80
9985;BMP180;16737;50.932;6.780;2023-10-13T08:11:17;99607.00;;;23.80
9985;BMP180;16737;50.932;6.780;2023-10-13T08:13:57;99582.00;;;23.80
9985;BMP180;16737;50.932;6.780;2023-10-13T08:16:26;99600.00;;;23.90
9985;BMP180;16737;50.932;6.780;2023-10-13T08:19:12;99605.00;;;23.90
9985;BMP180;16737;50.932;6.780;2023-10-13T08:21:41;99593.00;;;23.90
9985;BMP180;16737;50.932;6.780;2023-10-13T08:24:16;99588.00;;;24.00
9985;BMP180;16737;50.932;6.780;2023-10-13T08:26:51;99592.00;;;24.00
9985;BMP180;16737;50.932;6.780;2023-10-13T08:29:26;99591.00;;;24.00
9985;BMP180;16737;50.932;6.780;2023-10-13T08:32:10;99591.00;;;24.10
9985;BMP180;16737;50.932;6.780;2023-10-13T08:34:48;99584.00;;;24.10
9985;BMP180;16737;50.932;6.780;2023-10-13T08:37:36;99593.00;;;24.20
9985;BMP180;16737;50.932;6.780;2023-10-13T08:40:23;99591.00;;;24.20
9985;BMP180;16737;50.932;6.780;2023-10-13T08:43:11;99607.00;;;24.20
9985;BMP180;16737;50.932;6.780;2023-10-13T08:45:41;99580.00;;;24.30
9985;BMP180;16737;50.932;6.780;2023-10-13T08:48:21;99594.00;;;24.30
9985;BMP180;16737;50.932;6.780;2023-10-13T08:50:57;99586.00;;;24.40
9985;BMP180;16737;50.932;6.780;2023-10-13T08:53:32;99593.00;;;24.40
9985;BMP180;16737;50.932;6.780;2023-10-13T08:56:01;99595.00;;;24.50
9985;BMP180;16737;50.932;6.780;2023-10-13T08:58:30;99570.00;;;24.50
9985;BMP180;16737;50.932;6.780;2023-10-13T09:01:13;99592.00;;;24.50
9985;BMP180;16737;50.932;6.780;2023-10-13T09:04:00;99590.00;;;24.60
9985;BMP180;16737;50.932;6.780;2023-10-13T09:06:41;99581.00;;;24.60
9985;BMP180;16737;50.932;6.780;2023-10-13T09:09:12;99580.00;;;24.70
9985;BMP180;16737;50.932;6.780;2023-10-13T09:11:53;99561.00;;;24.80
9985;BMP180;16737;50.932;6.780;2023-10-13T09:14:34;99579.00;;;24.80
9985;BMP180;16737;50.932;6.780;2023-10-13T09:17:06;99578.00;;;24.90
9985;BMP180;16737;50.932;6.780;2023-10-13T09:19:48;99577.00;;;25.00
9985;BMP180;16737;50.932;6.780;2023-10-13T09:22:25;99573.00;;;25.10
9985;BMP180;16737;50.932;6.780;2023-10-13T09:24:55;99557.00;;;25.10
9985;BMP180;16737;50.932;6.780;2023-10-13T09:27:25;99557.00;;;25.20
9985;BMP180;16737;50.932;6.780;2023-10-13T09:30:00;99570.00;;;25.30
9985;BMP180;16737;50.932;6.780;2023-10-13T09:32:36;99560.00;;;25.40
9985;BMP180;16737;50.932;6.780;2023-10-13T09:35:18;99553.00;;;25.50
9985;BMP180;16737;50.932;6.780;2023-10-13T09:37:49;99556.00;;;25.60
9985;BMP180;16737;50.932;6.780;2023-10-13T09:40:17;99549.00;;;25.70
9985;BMP180;16737;50.932;6.780;2023-10-13T09:42:59;99544.00;;;25.80
9985;BMP180;16737;50.932;6.780;2023-10-13T09:45:32;99527.00;;;25.90
9985;BMP180;16737;50.932;6.780;2023-10-13T09:48:10;99529.00;;;26.00
9985;BMP180;16737;50.932;6.780;2023-10-13T09:50:44;99532.00;;;26.10
9985;BMP180;16737;50.932;6.780;2023-10-13T09:53:12;99518.00;;;26.20
9985;BMP180;16737;50.932;6.780;2023-10-13T09:55:48;99495.00;;;26.30
9985;BMP180;16737;50.932;6.780;2023-10-13T09:58:17;99502.00;;;26.40
9985;BMP180;16737;50.932;6.780;2023-10-13T10:00:50;99515.00;;;26.40
9985;BMP180;16737;50.932;6.780;2023-10-13T10:03:25;99508.00;;;26.50
9985;BMP180;16737;50.932;6.780;2023-10-13T10:06:06;99519.00;;;26.60
9985;BMP180;16737;50.932;6.780;2023-10-13T10:08:34;99511.00;;;26.60
9985;BMP180;16737;50.932;6.780;2023-10-13T10:11:30;99507.00;;;26.60
9985;BMP180;16737;50.932;6.780;2023-10-13T10:14:09;99524.00;;;26.70
9985;BMP180;16737;50.932;6.780;2023-10-13T10:16:50;99516.00;;;26.70
9985;BMP180;16737;50.932;6.780;2023-10-13T10:19:21;99519.00;;;26.80
9985;BMP180;16737;50.932;6.780;2023-10-13T10:21:49;99519.00;;;26.80
9985;BMP180;16737;50.932;6.780;2023-10-13T10:24:21;99520.00;;;26.90
9985;BMP180;16737;50.932;6.780;2023-10-13T10:26:56;99515.00;;;27.00
9985;BMP180;16737;50.932;6.780;2023-10-13T10:29:23;99513.00;;;27.10
9985;BMP180;16737;50.932;6.780;2023-10-13T10:31:50;99520.00;;;27.30
9985;BMP180;16737;50.932;6.780;2023-10-13T10:34:18;99518.00;;;27.40
9985;BMP180;16737;50.932;6.780;2023-10-13T10:36:54;99530.00;;;27.40
9985;BMP180;16737;50.932;6.780;2023-10-13T10:39:33;99516.00;;;27.60
9985;BMP180;16737;50.932;6.780;2023-10-13T10:42:11;99506.00;;;27.70
9985;BMP180;16737;50.932;6.780;2023-10-13T10:44:43;99498.00;;;27.80
9985;BMP180;16737;50.932;6.780;2023-10-13T10:47:15;99478.00;;;27.90
9985;BMP180;16737;50.932;6.780;2023-10-13T10:49:56;99496.00;;;28.00
9985;BMP180;16737;50.932;6.780;2023-10-13T10:52:27;99492.00;;;28.10
9985;BMP180;16737;50.932;6.780;2023-10-13T10:55:03;99485.00;;;28.20
9985;BMP180;16737;50.932;6.780;2023-10-13T10:57:33;99483.00;;;28.30
9985;BMP180;16737;50.932;6.780;2023-10-13T11:00:03;99485.00;;;28.40
9985;BMP180;16737;50.932;6.780;2023-10-13T11:02:38;99489.00;;;28.50
9985;BMP180;16737;50.932;6.780;2023-10-13T11:05:07;99477.00;;;28.50
9985;BMP180;16737;50.932;6.780;2023-10-13T11:07:36;99477.00;;;28.60
9985;BMP180;16737;50.932;6.780;2023-10-13T11:10:11;99486.00;;;28.60
9985;BMP180;16737;50.932;6.780;2023-10-13T11:12:55;99481.00;;;28.70
9985;BMP180;16737;50.932;6.780;2023-10-13T11:15:22;99490.00;;;28.70
9985;BMP180;16737;50.932;6.780;2023-10-13T11:17:49;99476.00;;;28.70
9985;BMP180;16737;50.932;6.780;2023-10-13T11:20:20;99483.00;;;28.70
9985;BMP180;16737;50.932;6.780;2023-10-13T11:22:53;99464.00;;;28.70
9985;BMP180;16737;50.932;6.780;2023-10-13T11:25:24;99465.00;;;28.60
9985;BMP180;16737;50.932;6.780;2023-10-13T11:27:57;99467.00;;;28.60
9985;BMP180;16737;50.932;6.780;2023-10-13T11:30:26;99468.00;;;28.60
9985;BMP180;16737;50.932;6.780;2023-10-13T11:33:08;99460.00;;;28.60
9985;BMP180;16737;50.932;6.780;2023-10-13T11:35:36;99457.00;;;28.60
9985;BMP180;16737;50.932;6.780;2023-10-13T11:38:24;99458.00;;;28.50
9985;BMP180;16737;50.932;6.780;2023-10-13T11:40:54;99433.00;;;28.50
9985;BMP180;16737;50.932;6.780;2023-10-13T11:43:36;99437.00;;;28.50
9985;BMP180;16737;50.932;6.780;2023-10-13T11:46:20;99431.00;;;28.50
9985;BMP180;16737;50.932;6.780;2023-10-13T11:49:01;99447.00;;;28.50
9985;BMP180;16737;50.932;6.780;2023-10-13T11:51:43;99432.00;;;28.40
9985;BMP180;16737;50.932;6.780;2023-10-13T11:54:13;99425.00;;;28.40
9985;BMP180;16737;50.932;6.780;2023-10-13T11:56:41;99438.00;;;28.40
9985;BMP180;16737;50.932;6.780;2023-10-13T11:59:08;99439.00;;;28.40
9985;BMP180;16737;50.932;6.780;2023-10-13T12:01:43;99433.00;;;28.30
9985;BMP180;16737;50.932;6.780;2023-10-13T12:04:28;99427.00;;;28.30
9985;BMP180;16737;50.932;6.780;2023-10-13T12:07:07;99396.00;;;28.20
9985;BMP180;16737;50.932;6.780;2023-10-13T12:09:48;99413.00;;;28.20
9985;BMP180;16737;50.932;6.780;2023-10-13T12:12:32;99401.00;;;28.20
9985;BMP180;16737;50.932;6.780;2023-10-13T12:15:07;99400.00;;;28.20
9985;BMP180;16737;50.932;6.780;2023-10-13T12:17:50;99382.00;;;28.20
9985;BMP180;16737;50.932;6.780;2023-10-13T12:20:17;99402.00;;;28.10
9985;BMP180;16737;50.932;6.780;2023-10-13T12:22:59;99406.00;;;28.10
9985;BMP180;16737;50.932;6.780;2023-10-13T12:25:38;99406.00;;;28.10
9985;BMP180;16737;50.932;6.780;2023-10-13T12:28:23;99397.00;;;28.00
9985;BMP180;16737;50.932;6.780;2023-10-13T12:30:54;99391.00;;;28.00
9985;BMP180;16737;50.932;6.780;2023-10-13T12:33:24;99403.00;;;28.00
9985;BMP180;16737;50.932;6.780;2023-10-13T12:35:57;99392.00;;;28.00
9985;BMP180;16737;50.932;6.780;2023-10-13T12:38:33;99400.00;;;27.90
9985;BMP180;16737;50.932;6.780;2023-10-13T12:41:19;99352.00;;;27.90
9985;BMP180;16737;50.932;6.780;2023-10-13T12:44:06;99177.00;;;27.90
9985;BMP180;16737;50.932;6.780;2023-10-13T12:46:52;99390.00;;;27.90
9985;BMP180;16737;50.932;6.780;2023-10-13T12:49:37;99391.00;;;27.90
9985;BMP180;16737;50.932;6.780;2023-10-13T12:52:18;99395.00;;;27.90
9985;BMP180;16737;50.932;6.780;2023-10-13T12:54:46;99381.00;;;27.90
9985;BMP180;16737;50.932;6.780;2023-10-13T12:57:26;99388.00;;;27.80
9985;BMP180;16737;50.932;6.780;2023-10-13T12:59:53;99365.00;;;27.80
9985;BMP180;16737;50.932;6.780;2023-10-13T13:02:20;99375.00;;;27.80
9985;BMP180;16737;50.932;6.780;2023-10-13T13:04:47;99371.00;;;27.80
9985;BMP180;16737;50.932;6.780;2023-10-13T13:07:20;99371.00;;;27.80
9985;BMP180;16737;50.932;6.780;2023-10-13T13:09:47;99368.00;;;27.80
9985;BMP180;16737;50.932;6.780;2023-10-13T13:12:14;99370.00;;;27.70
9985;BMP180;16737;50.932;6.780;2023-10-13T13:14:43;99365.00;;;27.70
9985;BMP180;16737;50.932;6.780;2023-10-13T13:17:12;99374.00;;;27.70
9985;BMP180;16737;50.932;6.780;2023-10-13T13:19:39;99373.00;;;27.70
9985;BMP180;16737;50.932;6.780;2023-10-13T13:22:07;99364.00;;;27.60
9985;BMP180;16737;50.932;6.780;2023-10-13T13:24:38;99378.00;;;27.70
9985;BMP180;16737;50.932;6.780;2023-10-13T13:27:09;99388.00;;;27.70
9985;BMP180;16737;50.932;6.780;2023-10-13T13:29:40;99387.00;;;27.70
9985;BMP180;16737;50.932;6.780;2023-10-13T13:32:08;99388.00;;;27.60
9985;BMP180;16737;50.932;6.780;2023-10-13T13:34:43;99366.00;;;27.60
9985;BMP180;16737;50.932;6.780;2023-10-13T13:37:11;99352.00;;;27.60
9985;BMP180;16737;50.932;6.780;2023-10-13T13:39:39;99343.00;;;27.50
9985;BMP180;16737;50.932;6.780;2023-10-13T13:42:11;99347.00;;;27.50
9985;BMP180;16737;50.932;6.780;2023-10-13T13:44:43;99290.00;;;27.50
9985;BMP180;16737;50.932;6.780;2023-10-13T13:47:13;99351.00;;;27.40
9985;BMP180;16737;50.932;6.780;2023-10-13T13:49:41;99356.00;;;27.40
9985;BMP180;16737;50.932;6.780;2023-10-13T13:52:16;99344.00;;;27.40
9985;BMP180;16737;50.932;6.780;2023-10-13T13:54:47;99345.00;;;27.40
9985;BMP180;16737;50.932;6.780;2023-10-13T13:57:14;99350.00;;;27.40
9985;BMP180;16737;50.932;6.780;2023-10-13T13:59:43;99352.00;;;27.40
9985;BMP180;16737;50.932;6.780;2023-10-13T14:02:12;99352.00;;;27.50
9985;BMP180;16737;50.932;6.780;2023-10-13T14:04:46;99354.00;;;27.50
9985;BMP180;16737;50.932;6.780;2023-10-13T14:07:16;99336.00;;;27.50
9985;BMP180;16737;50.932;6.780;2023-10-13T14:09:45;99326.00;;;27.60
9985;BMP180;16737;50.932;6.780;2023-10-13T14:12:17;99345.00;;;27.60
9985;BMP180;16737;50.932;6.780;2023-10-13T14:15:01;99358.00;;;27.60
9985;BMP180;16737;50.932;6.780;2023-10-13T14:17:30;99363.00;;;27.60
9985;BMP180;16737;50.932;6.780;2023-10-13T14:20:01;99357.00;;;27.60
9985;BMP180;16737;50.932;6.780;2023-10-13T14:22:34;99360.00;;;27.60
9985;BMP180;16737;50.932;6.780;2023-10-13T14:25:03;99355.00;;;27.70
9985;BMP180;16737;50.932;6.780;2023-10-13T14:27:34;99355.00;;;27.70
9985;BMP180;16737;50.932;6.780;2023-10-13T14:30:02;99348.00;;;27.70
9985;BMP180;16737;50.932;6.780;2023-10-13T14:32:30;99349.00;;;27.70
9985;BMP180;16737;50.932;6.780;2023-10-13T14:34:57;99365.00;;;27.70
9985;BMP180;16737;50.932;6.780;2023-10-13T14:37:25;99358.00;;;27.70
9985;BMP180;16737;50.932;6.780;2023-10-13T14:39:57;99354.00;;;27.70
9985;BMP180;16737;50.932;6.780;2023-10-13T14:42:26;99340.00;;;27.70
9985;BMP180;16737;50.932;6.780;2023-10-13T14:44:53;99344.00;;;27.70
9985;BMP180;16737;50.932;6.780;2023-10-13T14:47:23;99339.00;;;27.70
9985;BMP180;16737;50.932;6.780;2023-10-13T14:49:54;99349.00;;;27.70
9985;BMP180;16737;50.932;6.780;2023-10-13T14:52:22;99351.00;;;27.70
9985;BMP180;16737;50.932;6.780;2023-10-13T14:54:49;99342.00;;;27.70
9985;BMP180;16737;50.932;6.780;2023-10-13T14:57:21;99331.00;;;27.70
9985;BMP180;16737;50.932;6.780;2023-10-13T14:59:51;99340.00;;;27.70
9985;BMP180;16737;50.932;6.780;2023-10-13T15:02:18;99336.00;;;27.60
9985;BMP180;16737;50.932;6.780;2023-10-13T15:04:46;99334.00;;;27.60